sensor_id;sensor_type;location;lat;lon;timestamp;P1;durP1;ratioP1;P2;durP2;ratioP2
3050;SDS011;1535;51.098;6.414;2023-09-30T00:01:43;6.17;;;6.07;;
3050;SDS011;1535;51.098;6.414;2023-09-30T00:04:12;5.53;;;5.43;;
3050;SDS011;1535;51.098;6.414;2023-09-30T00:06:40;6.10;;;6.00;;
3050;SDS011;1535;51.098;6.414;2023-09-30T00:09:07;6.30;;;6.20;;
3050;SDS011;1535;51.098;6.414;2023-09-30T00:11:34;6.33;;;6.23;;
3050;SDS011;1535;51.098;6.414;2023-09-30T00:14:01;5.20;;;5.10;;
3050;SDS011;1535;51.098;6.414;2023-09-30T00:16:28;4.67;;;4.67;;
3050;SDS011;1535;51.098;6.414;2023-09-30T00:18:56;4.73;;;4.73;;
3050;SDS011;1535;51.098;6.414;2023-09-30T00:21:25;4.50;;;4.50;;
3050;SDS011;1535;51.098;6.414;2023-09-30T00:23:52;4.43;;;4.43;;
3050;SDS011;1535;51.098;6.414;2023-09-30T00:26:19;5.00;;;5.00;;
3050;SDS011;1535;51.098;6.414;2023-09-30T00:28:47;5.53;;;5.43;;
3050;SDS011;1535;51.098;6.414;2023-09-30T00:31:15;4.77;;;4.77;;
3050;SDS011;1535;51.098;6.414;2023-09-30T00:33:41;5.33;;;5.23;;
3050;SDS011;1535;51.098;6.414;2023-09-30T00:36:09;4.63;;;4.63;;
3050;SDS011;1535;51.098;6.414;2023-09-30T00:38:38;4.37;;;4.37;;
3050;SDS011;1535;51.098;6.414;2023-09-30T00:41:05;4.60;;;4.60;;
3050;SDS011;1535;51.098;6.414;2023-09-30T00:43:33;4.30;;;4.30;;
3050;SDS011;1535;51.098;6.414;2023-09-30T00:46:01;4.40;;;4.40;;
3050;SDS011;1535;51.098;6.414;2023-09-30T00:48:31;5.20;;;5.10;;
3050;SDS011;1535;51.098;6.414;2023-09-30T00:51:00;5.97;;;5.87;;
3050;SDS011;1535;51.098;6.414;2023-09-30T00:53:28;5.73;;;5.63;;
3050;SDS011;1535;51.098;6.414;2023-09-30T00:55:56;4.27;;;4.27;;
3050;SDS011;1535;51.098;6.414;2023-09-30T00:58:25;5.47;;;5.37;;
3050;SDS011;1535;51.098;6.414;2023-09-30T01:00:54;5.30;;;5.20;;
3050;SDS011;1535;51.098;6.414;2023-09-30T01:03:22;4.83;;;4.83;;
3050;SDS011;1535;51.098;6.414;2023-09-30T01:05:49;5.47;;;5.37;;
3050;SDS011;1535;51.098;6.414;2023-09-30T01:08:17;6.43;;;6.33;;
3050;SDS011;1535;51.098;6.414;2023-09-30T01:10:47;6.20;;;6.10;;
3050;SDS011;1535;51.098;6.414;2023-09-30T01:13:17;6.73;;;6.63;;
3050;SDS011;1535;51.098;6.414;2023-09-30T01:15:44;5.63;;;5.53;;
3050;SDS011;1535;51.098;6.414;2023-09-30T01:18:12;5.97;;;5.87;;
3050;SDS011;1535;51.098;6.414;2023-09-30T01:20:39;5.53;;;5.43;;
3050;SDS011;1535;51.098;6.414;2023-09-30T01:23:08;5.80;;;5.70;;
3050;SDS011;1535;51.098;6.414;2023-09-30T01:25:39;5.50;;;5.40;;
3050;SDS011;1535;51.098;6.414;2023-09-30T01:28:09;5.97;;;5.87;;
3050;SDS011;1535;51.098;6.414;2023-09-30T01:30:36;6.63;;;6.53;;
3050;SDS011;1535;51.098;6.414;2023-09-30T01:33:05;6.80;;;6.70;;
3050;SDS011;1535;51.098;6.414;2023-09-30T01:35:33;6.27;;;6.17;;
3050;SDS011;1535;51.098;6.414;2023-09-30T01:37:59;6.23;;;6.13;;
3050;SDS011;1535;51.098;6.414;2023-09-30T01:40:28;6.13;;;6.03;;
3050;SDS011;1535;51.098;6.414;2023-09-30T01:42:56;5.90;;;5.80;;
3050;SDS011;1535;51.098;6.414;2023-09-30T01:45:23;5.97;;;5.87;;
3050;SDS011;1535;51.098;6.414;2023-09-30T01:47:50;5.70;;;5.60;;
3050;SDS011;1535;51.098;6.414;2023-09-30T01:50:18;6.03;;;5.93;;
3050;SDS011;1535;51.098;6.414;2023-09-30T01:52:45;6.10;;;6.00;;
3050;SDS011;1535;51.098;6.414;2023-09-30T01:55:12;6.40;;;6.30;;
3050;SDS011;1535;51.098;6.414;2023-09-30T01:57:41;6.60;;;6.50;;
3050;SDS011;1535;51.098;6.414;2023-09-30T02:00:08;6.20;;;6.10;;
3050;SDS011;1535;51.098;6.414;2023-09-30T02:02:37;7.00;;;6.90;;
3050;SDS011;1535;51.098;6.414;2023-09-30T02:05:04;6.50;;;6.40;;
3050;SDS011;1535;51.098;6.414;2023-09-30T02:07:33;6.03;;;5.93;;
3050;SDS011;1535;51.098;6.414;2023-09-30T02:10:01;7.20;;;7.10;;
3050;SDS011;1535;51.098;6.414;2023-09-30T02:12:28;6.70;;;6.60;;
3050;SDS011;1535;51.098;6.414;2023-09-30T02:14:58;7.23;;;7.13;;
3050;SDS011;1535;51.098;6.414;2023-09-30T02:17:26;7.17;;;7.07;;
3050;SDS011;1535;51.098;6.414;2023-09-30T02:19:53;7.50;;;7.40;;
3050;SDS011;1535;51.098;6.414;2023-09-30T02:22:21;7.73;;;7.63;;
3050;SDS011;1535;51.098;6.414;2023-09-30T02:24:49;7.87;;;7.77;;
3050;SDS011;1535;51.098;6.414;2023-09-30T02:27:17;7.50;;;7.40;;
3050;SDS011;1535;51.098;6.414;2023-09-30T02:29:43;7.47;;;7.37;;
3050;SDS011;1535;51.098;6.414;2023-09-30T02:32:11;6.80;;;6.70;;
3050;SDS011;1535;51.098;6.414;2023-09-30T02:34:39;7.40;;;7.30;;
3050;SDS011;1535;51.098;6.414;2023-09-30T02:37:08;7.50;;;7.40;;
3050;SDS011;1535;51.098;6.414;2023-09-30T02:39:35;7.43;;;7.33;;
3050;SDS011;1535;51.098;6.414;2023-09-30T02:42:03;7.50;;;7.40;;
3050;SDS011;1535;51.098;6.414;2023-09-30T02:44:31;7.40;;;7.30;;
3050;SDS011;1535;51.098;6.414;2023-09-30T02:47:01;7.07;;;6.97;;
3050;SDS011;1535;51.098;6.414;2023-09-30T02:49:30;6.77;;;6.67;;
3050;SDS011;1535;51.098;6.414;2023-09-30T02:52:00;7.33;;;7.23;;
3050;SDS011;1535;51.098;6.414;2023-09-30T02:54:27;7.43;;;7.33;;
3050;SDS011;1535;51.098;6.414;2023-09-30T02:56:55;7.30;;;7.20;;
3050;SDS011;1535;51.098;6.414;2023-09-30T02:59:22;7.33;;;7.23;;
3050;SDS011;1535;51.098;6.414;2023-09-30T03:01:49;7.50;;;7.40;;
3050;SDS011;1535;51.098;6.414;2023-09-30T03:04:16;7.40;;;7.30;;
3050;SDS011;1535;51.098;6.414;2023-09-30T03:06:45;7.37;;;7.27;;
3050;SDS011;1535;51.098;6.414;2023-09-30T03:09:13;7.60;;;7.50;;
3050;SDS011;1535;51.098;6.414;2023-09-30T03:11:41;8.63;;;8.53;;
3050;SDS011;1535;51.098;6.414;2023-09-30T03:14:09;8.50;;;8.40;;
3050;SDS011;1535;51.098;6.414;2023-09-30T03:16:36;7.13;;;7.03;;
3050;SDS011;1535;51.098;6.414;2023-09-30T03:19:05;7.10;;;7.00;;
3050;SDS011;1535;51.098;6.414;2023-09-30T03:21:33;6.67;;;6.57;;
3050;SDS011;1535;51.098;6.414;2023-09-30T03:24:02;7.50;;;7.40;;
3050;SDS011;1535;51.098;6.414;2023-09-30T03:26:29;7.03;;;6.93;;
3050;SDS011;1535;51.098;6.414;2023-09-30T03:28:57;7.77;;;7.67;;
3050;SDS011;1535;51.098;6.414;2023-09-30T03:31:24;6.70;;;6.60;;
3050;SDS011;1535;51.098;6.414;2023-09-30T03:33:52;6.57;;;6.47;;
3050;SDS011;1535;51.098;6.414;2023-09-30T03:36:21;7.60;;;7.50;;
3050;SDS011;1535;51.098;6.414;2023-09-30T03:38:49;6.70;;;6.60;;
3050;SDS011;1535;51.098;6.414;2023-09-30T03:41:19;6.23;;;6.13;;
3050;SDS011;1535;51.098;6.414;2023-09-30T03:43:47;6.60;;;6.50;;
3050;SDS011;1535;51.098;6.414;2023-09-30T03:46:14;6.63;;;6.53;;
3050;SDS011;1535;51.098;6.414;2023-09-30T03:48:41;6.90;;;6.80;;
3050;SDS011;1535;51.098;6.414;2023-09-30T03:51:10;7.70;;;7.60;;
3050;SDS011;1535;51.098;6.414;2023-09-30T03:53:38;8.33;;;8.23;;
3050;SDS011;1535;51.098;6.414;2023-09-30T03:56:05;7.33;;;7.23;;
3050;SDS011;1535;51.098;6.414;2023-09-30T03:58:34;8.43;;;8.33;;
3050;SDS011;1535;51.098;6.414;2023-09-30T04:01:03;8.80;;;8.70;;
3050;SDS011;1535;51.098;6.414;2023-09-30T04:03:32;8.50;;;8.40;;
3050;SDS011;1535;51.098;6.414;2023-09-30T04:05:59;8.27;;;8.17;;
3050;SDS011;1535;51.098;6.414;2023-09-30T04:08:28;8.47;;;8.37;;
3050;SDS011;1535;51.098;6.414;2023-09-30T04:10:55;8.43;;;8.33;;
3050;SDS011;1535;51.098;6.414;2023-09-30T04:13:21;8.73;;;8.63;;
3050;SDS011;1535;51.098;6.414;2023-09-30T04:15:51;8.20;;;8.10;;
3050;SDS011;1535;51.098;6.414;2023-09-30T04:18:18;9.07;;;8.97;;
3050;SDS011;1535;51.098;6.414;2023-09-30T04:20:47;8.93;;;8.83;;
3050;SDS011;1535;51.098;6.414;2023-09-30T04:23:13;9.00;;;8.87;;
3050;SDS011;1535;51.098;6.414;2023-09-30T04:25:42;7.70;;;7.60;;
3050;SDS011;1535;51.098;6.414;2023-09-30T04:28:09;7.63;;;7.53;;
3050;SDS011;1535;51.098;6.414;2023-09-30T04:30:36;7.83;;;7.73;;
3050;SDS011;1535;51.098;6.414;2023-09-30T04:33:06;8.40;;;8.30;;
3050;SDS011;1535;51.098;6.414;2023-09-30T04:35:37;8.57;;;8.47;;
3050;SDS011;1535;51.098;6.414;2023-09-30T04:38:06;8.60;;;8.50;;
3050;SDS011;1535;51.098;6.414;2023-09-30T04:40:33;8.23;;;8.13;;
3050;SDS011;1535;51.098;6.414;2023-09-30T04:43:00;7.90;;;7.80;;
3050;SDS011;1535;51.098;6.414;2023-09-30T04:45:27;9.07;;;8.93;;
3050;SDS011;1535;51.098;6.414;2023-09-30T04:47:54;9.00;;;8.90;;
3050;SDS011;1535;51.098;6.414;2023-09-30T04:50:23;9.20;;;9.00;;
3050;SDS011;1535;51.098;6.414;2023-09-30T04:52:51;8.57;;;8.47;;
3050;SDS011;1535;51.098;6.414;2023-09-30T04:55:18;9.33;;;9.13;;
3050;SDS011;1535;51.098;6.414;2023-09-30T04:57:47;8.57;;;8.47;;
3050;SDS011;1535;51.098;6.414;2023-09-30T05:00:16;9.00;;;8.90;;
3050;SDS011;1535;51.098;6.414;2023-09-30T05:02:44;9.30;;;9.13;;
3050;SDS011;1535;51.098;6.414;2023-09-30T05:05:11;8.97;;;8.87;;
3050;SDS011;1535;51.098;6.414;2023-09-30T05:07:39;9.40;;;9.20;;
3050;SDS011;1535;51.098;6.414;2023-09-30T05:10:06;9.60;;;9.40;;
3050;SDS011;1535;51.098;6.414;2023-09-30T05:12:36;9.53;;;9.33;;
3050;SDS011;1535;51.098;6.414;2023-09-30T05:15:04;10.13;;;9.93;;
3050;SDS011;1535;51.098;6.414;2023-09-30T05:17:31;10.10;;;9.90;;
3050;SDS011;1535;51.098;6.414;2023-09-30T05:19:58;9.60;;;9.40;;
3050;SDS011;1535;51.098;6.414;2023-09-30T05:22:25;9.60;;;9.40;;
3050;SDS011;1535;51.098;6.414;2023-09-30T05:24:54;10.50;;;10.30;;
3050;SDS011;1535;51.098;6.414;2023-09-30T05:27:22;11.50;;;11.20;;
3050;SDS011;1535;51.098;6.414;2023-09-30T05:29:49;10.90;;;10.70;;
3050;SDS011;1535;51.098;6.414;2023-09-30T05:32:15;10.20;;;10.00;;
3050;SDS011;1535;51.098;6.414;2023-09-30T05:34:43;10.83;;;10.63;;
3050;SDS011;1535;51.098;6.414;2023-09-30T05:37:10;11.13;;;10.90;;
3050;SDS011;1535;51.098;6.414;2023-09-30T05:39:38;11.23;;;10.97;;
3050;SDS011;1535;51.098;6.414;2023-09-30T05:42:08;11.10;;;10.90;;
3050;SDS011;1535;51.098;6.414;2023-09-30T05:44:37;10.70;;;10.50;;
3050;SDS011;1535;51.098;6.414;2023-09-30T05:47:06;10.60;;;10.40;;
3050;SDS011;1535;51.098;6.414;2023-09-30T05:49:33;11.00;;;10.80;;
3050;SDS011;1535;51.098;6.414;2023-09-30T05:52:01;10.17;;;9.97;;
3050;SDS011;1535;51.098;6.414;2023-09-30T05:54:28;11.00;;;10.80;;
3050;SDS011;1535;51.098;6.414;2023-09-30T05:56:56;10.67;;;10.47;;
3050;SDS011;1535;51.098;6.414;2023-09-30T05:59:24;10.47;;;10.27;;
3050;SDS011;1535;51.098;6.414;2023-09-30T06:01:52;11.00;;;10.80;;
3050;SDS011;1535;51.098;6.414;2023-09-30T06:04:18;11.07;;;10.87;;
3050;SDS011;1535;51.098;6.414;2023-09-30T06:06:46;11.00;;;10.80;;
3050;SDS011;1535;51.098;6.414;2023-09-30T06:09:13;11.73;;;11.43;;
3050;SDS011;1535;51.098;6.414;2023-09-30T06:11:40;11.00;;;10.80;;
3050;SDS011;1535;51.098;6.414;2023-09-30T06:14:07;10.47;;;10.27;;
3050;SDS011;1535;51.098;6.414;2023-09-30T06:16:35;10.97;;;10.77;;
3050;SDS011;1535;51.098;6.414;2023-09-30T06:19:02;10.63;;;10.43;;
3050;SDS011;1535;51.098;6.414;2023-09-30T06:21:29;10.67;;;10.47;;
3050;SDS011;1535;51.098;6.414;2023-09-30T06:23:59;10.90;;;10.70;;
3050;SDS011;1535;51.098;6.414;2023-09-30T06:26:27;10.43;;;10.23;;
3050;SDS011;1535;51.098;6.414;2023-09-30T06:28:54;10.10;;;9.90;;
3050;SDS011;1535;51.098;6.414;2023-09-30T06:31:22;10.50;;;10.30;;
3050;SDS011;1535;51.098;6.414;2023-09-30T06:33:50;10.23;;;10.03;;
3050;SDS011;1535;51.098;6.414;2023-09-30T06:36:21;9.97;;;9.77;;
3050;SDS011;1535;51.098;6.414;2023-09-30T06:38:48;9.80;;;9.60;;
3050;SDS011;1535;51.098;6.414;2023-09-30T06:41:17;10.20;;;10.00;;
3050;SDS011;1535;51.098;6.414;2023-09-30T06:43:44;10.47;;;10.27;;
3050;SDS011;1535;51.098;6.414;2023-09-30T06:46:11;9.83;;;9.63;;
3050;SDS011;1535;51.098;6.414;2023-09-30T06:48:39;9.50;;;9.30;;
3050;SDS011;1535;51.098;6.414;2023-09-30T06:51:12;8.50;;;8.40;;
3050;SDS011;1535;51.098;6.414;2023-09-30T06:53:40;9.80;;;9.60;;
3050;SDS011;1535;51.098;6.414;2023-09-30T06:56:08;9.70;;;9.50;;
3050;SDS011;1535;51.098;6.414;2023-09-30T06:58:35;9.47;;;9.27;;
3050;SDS011;1535;51.098;6.414;2023-09-30T07:01:02;10.00;;;9.80;;
3050;SDS011;1535;51.098;6.414;2023-09-30T07:03:29;9.47;;;9.27;;
3050;SDS011;1535;51.098;6.414;2023-09-30T07:05:57;9.17;;;8.97;;
3050;SDS011;1535;51.098;6.414;2023-09-30T07:08:27;8.93;;;8.83;;
3050;SDS011;1535;51.098;6.414;2023-09-30T07:10:56;8.90;;;8.80;;
3050;SDS011;1535;51.098;6.414;2023-09-30T07:13:23;7.87;;;7.77;;
3050;SDS011;1535;51.098;6.414;2023-09-30T07:15:52;7.50;;;7.40;;
3050;SDS011;1535;51.098;6.414;2023-09-30T07:18:18;6.97;;;6.87;;
3050;SDS011;1535;51.098;6.414;2023-09-30T07:20:45;7.07;;;6.97;;
3050;SDS011;1535;51.098;6.414;2023-09-30T07:23:13;7.83;;;7.73;;
3050;SDS011;1535;51.098;6.414;2023-09-30T07:25:42;7.30;;;7.20;;
3050;SDS011;1535;51.098;6.414;2023-09-30T07:28:10;7.53;;;7.43;;
3050;SDS011;1535;51.098;6.414;2023-09-30T07:30:38;7.37;;;7.27;;
3050;SDS011;1535;51.098;6.414;2023-09-30T07:33:06;6.90;;;6.80;;
3050;SDS011;1535;51.098;6.414;2023-09-30T07:35:34;7.00;;;6.90;;
3050;SDS011;1535;51.098;6.414;2023-09-30T07:38:03;7.00;;;6.90;;
3050;SDS011;1535;51.098;6.414;2023-09-30T07:40:30;7.20;;;7.10;;
3050;SDS011;1535;51.098;6.414;2023-09-30T07:42:59;6.33;;;6.23;;
3050;SDS011;1535;51.098;6.414;2023-09-30T07:45:25;7.40;;;7.30;;
3050;SDS011;1535;51.098;6.414;2023-09-30T07:47:53;6.03;;;5.93;;
3050;SDS011;1535;51.098;6.414;2023-09-30T07:50:20;6.70;;;6.60;;
3050;SDS011;1535;51.098;6.414;2023-09-30T07:52:47;6.70;;;6.60;;
3050;SDS011;1535;51.098;6.414;2023-09-30T07:55:14;6.93;;;6.83;;
3050;SDS011;1535;51.098;6.414;2023-09-30T07:57:41;7.33;;;7.23;;
3050;SDS011;1535;51.098;6.414;2023-09-30T08:00:11;6.70;;;6.60;;
3050;SDS011;1535;51.098;6.414;2023-09-30T08:02:41;6.10;;;6.00;;
3050;SDS011;1535;51.098;6.414;2023-09-30T08:05:09;6.20;;;6.10;;
3050;SDS011;1535;51.098;6.414;2023-09-30T08:07:37;6.23;;;6.13;;
3050;SDS011;1535;51.098;6.414;2023-09-30T08:10:04;6.50;;;6.40;;
3050;SDS011;1535;51.098;6.414;2023-09-30T08:12:37;6.57;;;6.47;;
3050;SDS011;1535;51.098;6.414;2023-09-30T08:15:04;6.17;;;6.07;;
3050;SDS011;1535;51.098;6.414;2023-09-30T08:17:34;5.83;;;5.73;;
3050;SDS011;1535;51.098;6.414;2023-09-30T08:20:01;6.70;;;6.60;;
3050;SDS011;1535;51.098;6.414;2023-09-30T08:22:29;6.63;;;6.53;;
3050;SDS011;1535;51.098;6.414;2023-09-30T08:24:57;7.00;;;6.90;;
3050;SDS011;1535;51.098;6.414;2023-09-30T08:27:24;6.30;;;6.20;;
3050;SDS011;1535;51.098;6.414;2023-09-30T08:29:52;6.60;;;6.50;;
3050;SDS011;1535;51.098;6.414;2023-09-30T08:32:19;6.90;;;6.80;;
3050;SDS011;1535;51.098;6.414;2023-09-30T08:34:48;6.50;;;6.40;;
3050;SDS011;1535;51.098;6.414;2023-09-30T08:37:15;6.80;;;6.70;;
3050;SDS011;1535;51.098;6.414;2023-09-30T08:39:42;6.57;;;6.47;;
3050;SDS011;1535;51.098;6.414;2023-09-30T08:42:09;6.83;;;6.73;;
3050;SDS011;1535;51.098;6.414;2023-09-30T08:44:37;6.40;;;6.30;;
3050;SDS011;1535;51.098;6.414;2023-09-30T08:47:05;7.07;;;6.97;;
3050;SDS011;1535;51.098;6.414;2023-09-30T08:49:34;6.27;;;6.17;;
3050;SDS011;1535;51.098;6.414;2023-09-30T08:52:06;6.40;;;6.30;;
3050;SDS011;1535;51.098;6.414;2023-09-30T08:54:37;6.53;;;6.43;;
3050;SDS011;1535;51.098;6.414;2023-09-30T08:57:04;7.00;;;6.90;;
3050;SDS011;1535;51.098;6.414;2023-09-30T08:59:34;7.27;;;7.17;;
3050;SDS011;1535;51.098;6.414;2023-09-30T09:02:02;7.07;;;6.97;;
3050;SDS011;1535;51.098;6.414;2023-09-30T09:04:33;7.73;;;7.63;;
3050;SDS011;1535;51.098;6.414;2023-09-30T09:07:02;6.40;;;6.30;;
3050;SDS011;1535;51.098;6.414;2023-09-30T09:09:30;6.53;;;6.43;;
3050;SDS011;1535;51.098;6.414;2023-09-30T09:11:58;7.10;;;7.00;;
3050;SDS011;1535;51.098;6.414;2023-09-30T09:14:38;6.70;;;6.60;;
3050;SDS011;1535;51.098;6.414;2023-09-30T09:17:08;7.00;;;6.90;;
3050;SDS011;1535;51.098;6.414;2023-09-30T09:19:37;7.77;;;7.67;;
3050;SDS011;1535;51.098;6.414;2023-09-30T09:22:04;7.13;;;7.03;;
3050;SDS011;1535;51.098;6.414;2023-09-30T09:24:33;7.00;;;6.90;;
3050;SDS011;1535;51.098;6.414;2023-09-30T09:27:04;7.23;;;7.13;;
3050;SDS011;1535;51.098;6.414;2023-09-30T09:29:32;7.03;;;6.93;;
3050;SDS011;1535;51.098;6.414;2023-09-30T09:32:07;8.23;;;8.13;;
3050;SDS011;1535;51.098;6.414;2023-09-30T09:34:36;9.60;;;9.40;;
3050;SDS011;1535;51.098;6.414;2023-09-30T09:37:12;8.83;;;8.70;;
3050;SDS011;1535;51.098;6.414;2023-09-30T09:39:41;9.40;;;9.20;;
3050;SDS011;1535;51.098;6.414;2023-09-30T09:42:23;8.30;;;8.20;;
3050;SDS011;1535;51.098;6.414;2023-09-30T09:44:52;8.20;;;8.10;;
3050;SDS011;1535;51.098;6.414;2023-09-30T09:47:23;10.53;;;10.33;;
3050;SDS011;1535;51.098;6.414;2023-09-30T09:49:51;10.60;;;10.40;;
3050;SDS011;1535;51.098;6.414;2023-09-30T09:52:20;10.67;;;10.47;;
3050;SDS011;1535;51.098;6.414;2023-09-30T09:54:51;10.43;;;10.23;;
3050;SDS011;1535;51.098;6.414;2023-09-30T09:57:18;10.10;;;9.90;;
3050;SDS011;1535;51.098;6.414;2023-09-30T09:59:46;10.87;;;10.57;;
3050;SDS011;1535;51.098;6.414;2023-09-30T10:02:16;10.90;;;10.60;;
3050;SDS011;1535;51.098;6.414;2023-09-30T10:04:43;11.73;;;11.43;;
3050;SDS011;1535;51.098;6.414;2023-09-30T10:07:12;11.30;;;11.00;;
3050;SDS011;1535;51.098;6.414;2023-09-30T10:09:46;11.60;;;11.30;;
3050;SDS011;1535;51.098;6.414;2023-09-30T10:12:17;11.90;;;11.60;;
3050;SDS011;1535;51.098;6.414;2023-09-30T10:14:46;11.90;;;11.60;;
3050;SDS011;1535;51.098;6.414;2023-09-30T10:17:15;11.90;;;11.60;;
3050;SDS011;1535;51.098;6.414;2023-09-30T10:22:31;11.60;;;11.30;;
3050;SDS011;1535;51.098;6.414;2023-09-30T10:24:58;11.40;;;11.10;;
3050;SDS011;1535;51.098;6.414;2023-09-30T10:27:32;12.07;;;11.77;;
3050;SDS011;1535;51.098;6.414;2023-09-30T10:30:09;11.60;;;11.30;;
3050;SDS011;1535;51.098;6.414;2023-09-30T10:35:43;12.30;;;12.00;;
3050;SDS011;1535;51.098;6.414;2023-09-30T10:41:05;12.33;;;12.03;;
3050;SDS011;1535;51.098;6.414;2023-09-30T10:43:36;12.40;;;12.10;;
3050;SDS011;1535;51.098;6.414;2023-09-30T10:46:04;12.30;;;12.00;;
3050;SDS011;1535;51.098;6.414;2023-09-30T10:48:55;12.47;;;12.17;;
3050;SDS011;1535;51.098;6.414;2023-09-30T10:51:22;12.50;;;12.20;;
3050;SDS011;1535;51.098;6.414;2023-09-30T10:53:49;12.60;;;12.30;;
3050;SDS011;1535;51.098;6.414;2023-09-30T10:56:18;12.00;;;11.70;;
3050;SDS011;1535;51.098;6.414;2023-09-30T10:58:49;11.90;;;11.60;;
3050;SDS011;1535;51.098;6.414;2023-09-30T11:01:16;12.30;;;12.00;;
3050;SDS011;1535;51.098;6.414;2023-09-30T11:03:44;12.90;;;12.50;;
3050;SDS011;1535;51.098;6.414;2023-09-30T11:06:13;12.50;;;12.20;;
3050;SDS011;1535;51.098;6.414;2023-09-30T11:08:44;12.60;;;12.30;;
3050;SDS011;1535;51.098;6.414;2023-09-30T11:11:12;12.10;;;11.80;;
3050;SDS011;1535;51.098;6.414;2023-09-30T11:13:40;11.57;;;11.27;;
3050;SDS011;1535;51.098;6.414;2023-09-30T11:16:08;11.77;;;11.47;;
3050;SDS011;1535;51.098;6.414;2023-09-30T11:18:36;11.90;;;11.60;;
3050;SDS011;1535;51.098;6.414;2023-09-30T11:21:07;12.50;;;12.20;;
3050;SDS011;1535;51.098;6.414;2023-09-30T11:23:35;12.17;;;11.87;;
3050;SDS011;1535;51.098;6.414;2023-09-30T11:26:03;13.00;;;12.60;;
3050;SDS011;1535;51.098;6.414;2023-09-30T11:28:38;12.90;;;12.50;;
3050;SDS011;1535;51.098;6.414;2023-09-30T11:31:11;12.50;;;12.20;;
3050;SDS011;1535;51.098;6.414;2023-09-30T11:33:47;12.50;;;12.20;;
3050;SDS011;1535;51.098;6.414;2023-09-30T11:36:17;13.30;;;12.90;;
3050;SDS011;1535;51.098;6.414;2023-09-30T11:38:45;13.03;;;12.63;;
3050;SDS011;1535;51.098;6.414;2023-09-30T11:41:14;12.60;;;12.30;;
3050;SDS011;1535;51.098;6.414;2023-09-30T11:43:57;12.70;;;12.40;;
3050;SDS011;1535;51.098;6.414;2023-09-30T11:46:27;13.30;;;12.90;;
3050;SDS011;1535;51.098;6.414;2023-09-30T11:48:58;13.50;;;13.10;;
3050;SDS011;1535;51.098;6.414;2023-09-30T11:51:26;14.87;;;14.37;;
3050;SDS011;1535;51.098;6.414;2023-09-30T11:53:54;14.07;;;13.67;;
3050;SDS011;1535;51.098;6.414;2023-09-30T11:56:22;13.60;;;13.20;;
3050;SDS011;1535;51.098;6.414;2023-09-30T11:58:54;13.77;;;13.37;;
3050;SDS011;1535;51.098;6.414;2023-09-30T12:01:22;13.77;;;13.37;;
3050;SDS011;1535;51.098;6.414;2023-09-30T12:03:52;13.63;;;13.23;;
3050;SDS011;1535;51.098;6.414;2023-09-30T12:06:21;13.90;;;13.50;;
3050;SDS011;1535;51.098;6.414;2023-09-30T12:08:48;14.50;;;14.00;;
3050;SDS011;1535;51.098;6.414;2023-09-30T12:11:17;14.80;;;14.30;;
3050;SDS011;1535;51.098;6.414;2023-09-30T12:13:45;14.30;;;13.90;;
3050;SDS011;1535;51.098;6.414;2023-09-30T12:16:14;13.97;;;13.57;;
3050;SDS011;1535;51.098;6.414;2023-09-30T12:18:41;12.83;;;12.47;;
3050;SDS011;1535;51.098;6.414;2023-09-30T12:21:10;13.10;;;12.70;;
3050;SDS011;1535;51.098;6.414;2023-09-30T12:23:38;13.40;;;13.00;;
3050;SDS011;1535;51.098;6.414;2023-09-30T12:26:06;14.60;;;14.10;;
3050;SDS011;1535;51.098;6.414;2023-09-30T12:28:33;14.33;;;13.90;;
3050;SDS011;1535;51.098;6.414;2023-09-30T12:31:01;14.20;;;13.80;;
3050;SDS011;1535;51.098;6.414;2023-09-30T12:33:30;14.23;;;13.80;;
3050;SDS011;1535;51.098;6.414;2023-09-30T12:35:57;14.30;;;13.90;;
3050;SDS011;1535;51.098;6.414;2023-09-30T12:38:27;14.50;;;14.00;;
3050;SDS011;1535;51.098;6.414;2023-09-30T12:40:55;14.23;;;13.83;;
3050;SDS011;1535;51.098;6.414;2023-09-30T12:43:22;13.70;;;13.30;;
3050;SDS011;1535;51.098;6.414;2023-09-30T12:45:51;13.50;;;13.10;;
3050;SDS011;1535;51.098;6.414;2023-09-30T12:48:19;14.10;;;13.70;;
3050;SDS011;1535;51.098;6.414;2023-09-30T12:50:46;13.67;;;13.27;;
3050;SDS011;1535;51.098;6.414;2023-09-30T12:53:13;13.70;;;13.30;;
3050;SDS011;1535;51.098;6.414;2023-09-30T12:55:42;13.53;;;13.13;;
3050;SDS011;1535;51.098;6.414;2023-09-30T12:58:10;13.27;;;12.87;;
3050;SDS011;1535;51.098;6.414;2023-09-30T13:00:38;13.70;;;13.30;;
3050;SDS011;1535;51.098;6.414;2023-09-30T13:03:06;13.73;;;13.33;;
3050;SDS011;1535;51.098;6.414;2023-09-30T13:05:33;14.40;;;14.00;;
3050;SDS011;1535;51.098;6.414;2023-09-30T13:08:00;14.10;;;13.70;;
3050;SDS011;1535;51.098;6.414;2023-09-30T13:10:27;14.13;;;13.73;;
3050;SDS011;1535;51.098;6.414;2023-09-30T13:12:56;14.30;;;13.90;;
3050;SDS011;1535;51.098;6.414;2023-09-30T13:15:23;13.83;;;13.43;;
3050;SDS011;1535;51.098;6.414;2023-09-30T13:17:51;13.30;;;12.90;;
3050;SDS011;1535;51.098;6.414;2023-09-30T13:20:18;13.87;;;13.47;;
3050;SDS011;1535;51.098;6.414;2023-09-30T13:22:46;14.07;;;13.67;;
3050;SDS011;1535;51.098;6.414;2023-09-30T13:25:12;14.90;;;14.40;;
3050;SDS011;1535;51.098;6.414;2023-09-30T13:27:41;14.80;;;14.30;;
3050;SDS011;1535;51.098;6.414;2023-09-30T13:30:11;15.20;;;14.70;;
3050;SDS011;1535;51.098;6.414;2023-09-30T13:32:39;14.50;;;14.00;;
3050;SDS011;1535;51.098;6.414;2023-09-30T13:35:06;14.73;;;14.23;;
3050;SDS011;1535;51.098;6.414;2023-09-30T13:37:34;14.73;;;14.23;;
3050;SDS011;1535;51.098;6.414;2023-09-30T13:40:02;14.70;;;14.20;;
3050;SDS011;1535;51.098;6.414;2023-09-30T13:42:33;14.77;;;14.27;;
3050;SDS011;1535;51.098;6.414;2023-09-30T13:45:00;14.57;;;14.10;;
3050;SDS011;1535;51.098;6.414;2023-09-30T13:47:28;15.10;;;14.60;;
3050;SDS011;1535;51.098;6.414;2023-09-30T13:49:55;14.90;;;14.40;;
3050;SDS011;1535;51.098;6.414;2023-09-30T13:52:22;14.20;;;13.80;;
3050;SDS011;1535;51.098;6.414;2023-09-30T13:54:49;14.27;;;13.87;;
3050;SDS011;1535;51.098;6.414;2023-09-30T13:57:18;14.73;;;14.23;;
3050;SDS011;1535;51.098;6.414;2023-09-30T13:59:44;15.00;;;14.50;;
3050;SDS011;1535;51.098;6.414;2023-09-30T14:02:12;14.83;;;14.33;;
3050;SDS011;1535;51.098;6.414;2023-09-30T14:04:40;14.50;;;14.10;;
3050;SDS011;1535;51.098;6.414;2023-09-30T14:07:07;13.97;;;13.57;;
3050;SDS011;1535;51.098;6.414;2023-09-30T14:09:34;14.27;;;13.87;;
3050;SDS011;1535;51.098;6.414;2023-09-30T14:12:01;14.63;;;14.13;;
3050;SDS011;1535;51.098;6.414;2023-09-30T14:14:30;14.10;;;13.70;;
3050;SDS011;1535;51.098;6.414;2023-09-30T14:16:57;14.23;;;13.83;;
3050;SDS011;1535;51.098;6.414;2023-09-30T14:19:24;13.93;;;13.53;;
3050;SDS011;1535;51.098;6.414;2023-09-30T14:21:54;14.37;;;13.97;;
3050;SDS011;1535;51.098;6.414;2023-09-30T14:24:23;13.60;;;13.20;;
3050;SDS011;1535;51.098;6.414;2023-09-30T14:26:49;14.40;;;14.00;;
3050;SDS011;1535;51.098;6.414;2023-09-30T14:29:16;14.33;;;13.93;;
3050;SDS011;1535;51.098;6.414;2023-09-30T14:31:43;14.27;;;13.87;;
3050;SDS011;1535;51.098;6.414;2023-09-30T14:34:10;14.20;;;13.80;;
3050;SDS011;1535;51.098;6.414;2023-09-30T14:36:37;14.97;;;14.47;;
3050;SDS011;1535;51.098;6.414;2023-09-30T14:39:06;14.20;;;13.80;;
3050;SDS011;1535;51.098;6.414;2023-09-30T14:41:34;14.57;;;14.13;;
3050;SDS011;1535;51.098;6.414;2023-09-30T14:44:03;14.57;;;14.10;;
3050;SDS011;1535;51.098;6.414;2023-09-30T14:46:33;14.87;;;14.37;;
3050;SDS011;1535;51.098;6.414;2023-09-30T14:49:00;14.30;;;13.90;;
3050;SDS011;1535;51.098;6.414;2023-09-30T14:51:27;14.60;;;14.20;;
3050;SDS011;1535;51.098;6.414;2023-09-30T14:53:54;14.47;;;14.07;;
3050;SDS011;1535;51.098;6.414;2023-09-30T14:56:22;14.70;;;14.23;;
3050;SDS011;1535;51.098;6.414;2023-09-30T14:58:49;13.93;;;13.53;;
3050;SDS011;1535;51.098;6.414;2023-09-30T15:01:16;13.93;;;13.53;;
3050;SDS011;1535;51.098;6.414;2023-09-30T15:03:44;14.93;;;14.43;;
3050;SDS011;1535;51.098;6.414;2023-09-30T15:06:11;14.87;;;14.37;;
3050;SDS011;1535;51.098;6.414;2023-09-30T15:08:39;14.80;;;14.30;;
3050;SDS011;1535;51.098;6.414;2023-09-30T15:11:10;14.67;;;14.17;;
3050;SDS011;1535;51.098;6.414;2023-09-30T15:13:41;14.60;;;14.13;;
3050;SDS011;1535;51.098;6.414;2023-09-30T15:16:17;14.80;;;14.30;;
3050;SDS011;1535;51.098;6.414;2023-09-30T15:18:44;14.97;;;14.47;;